createdAt,value
2023-03-30T00:01:02.225Z,42.80
2023-03-30T00:03:55.760Z,42.90
2023-03-30T00:06:50.564Z,42.90
2023-03-30T00:09:43.773Z,43.50
2023-03-30T00:12:39.277Z,42.80
2023-03-30T00:15:32.141Z,42.90
2023-03-30T00:18:26.429Z,42.90
2023-03-30T00:21:20.584Z,42.90
2023-03-30T00:24:14.370Z,42.80
2023-03-30T00:27:07.852Z,42.80
2023-03-30T00:30:03.039Z,42.90
2023-03-30T00:32:56.461Z,42.80
2023-03-30T00:35:53.316Z,42.90
2023-03-30T00:38:48.431Z,42.90
2023-03-30T00:41:41.579Z,42.90
2023-03-30T00:45:17.799Z,42.90
2023-03-30T00:48:17.534Z,42.90
2023-03-30T00:51:14.010Z,42.90
2023-03-30T00:54:12.221Z,42.90
2023-03-30T00:57:06.569Z,42.90
2023-03-30T00:59:59.389Z,42.90
2023-03-30T01:02:57.322Z,42.90
2023-03-30T01:05:53.603Z,42.90
2023-03-30T01:08:47.134Z,42.90
2023-03-30T01:11:41.417Z,42.90
2023-03-30T01:14:34.840Z,42.90
2023-03-30T01:17:33.145Z,42.90
2023-03-30T01:20:52.605Z,42.90
2023-03-30T01:24:16.837Z,42.90
2023-03-30T01:27:19.791Z,42.90
2023-03-30T01:30:27.593Z,42.90
2023-03-30T01:33:58.936Z,42.90
2023-03-30T01:37:20.902Z,42.90
2023-03-30T01:40:17.752Z,42.90
2023-03-30T01:43:18.758Z,42.90
2023-03-30T01:46:25.289Z,42.90
2023-03-30T01:49:27.493Z,42.90
2023-03-30T01:52:24.602Z,42.90
2023-03-30T01:55:22.080Z,42.90
2023-03-30T01:58:20.279Z,42.90
2023-03-30T02:01:17.395Z,42.90
2023-03-30T02:04:13.251Z,42.90
2023-03-30T02:07:11.171Z,42.90
2023-03-30T02:10:09.382Z,42.90
2023-03-30T02:13:04.911Z,42.90
2023-03-30T02:16:03.124Z,42.90
2023-03-30T02:18:57.696Z,42.80
2023-03-30T02:21:50.430Z,42.90
2023-03-30T02:24:44.731Z,42.90
2023-03-30T02:27:38.634Z,42.80
2023-03-30T02:30:35.231Z,42.90
2023-03-30T02:33:36.835Z,42.90
2023-03-30T02:36:49.590Z,42.90
2023-03-30T02:39:56.856Z,42.90
2023-03-30T02:43:04.810Z,42.90
2023-03-30T02:46:15.119Z,42.90
2023-03-30T02:49:17.469Z,42.90
2023-03-30T02:52:22.431Z,42.90
2023-03-30T02:55:22.151Z,42.90
2023-03-30T02:58:18.766Z,42.90
2023-03-30T03:01:18.086Z,42.90
2023-03-30T03:04:13.301Z,42.90
2023-03-30T03:07:06.536Z,42.90
2023-03-30T03:09:59.903Z,42.90
2023-03-30T03:12:53.284Z,42.90
2023-03-30T03:15:46.436Z,42.90
2023-03-30T03:18:41.544Z,42.90
2023-03-30T03:21:34.742Z,42.90
2023-03-30T03:24:28.431Z,42.90
2023-03-30T03:27:22.235Z,42.90
2023-03-30T03:30:15.977Z,42.90
2023-03-30T03:33:09.685Z,42.90
2023-03-30T03:36:04.163Z,42.90
2023-03-30T03:38:57.901Z,42.90
2023-03-30T03:41:50.360Z,42.90
2023-03-30T03:44:43.449Z,42.90
2023-03-30T03:47:37.190Z,42.90
2023-03-30T03:50:31.150Z,42.90
2023-03-30T03:53:27.934Z,42.90
2023-03-30T03:56:20.269Z,42.90
2023-03-30T03:59:13.646Z,42.90
2023-03-30T04:02:07.146Z,42.90
2023-03-30T04:05:00.695Z,42.90
2023-03-30T04:07:56.452Z,42.90
2023-03-30T04:10:50.878Z,42.90
2023-03-30T04:13:43.785Z,42.90
2023-03-30T04:16:37.126Z,42.90
2023-03-30T04:19:31.455Z,42.90
2023-03-30T04:22:25.421Z,42.90
2023-03-30T04:25:22.591Z,42.90
2023-03-30T04:28:21.573Z,42.90
2023-03-30T04:31:14.410Z,42.90
2023-03-30T04:34:09.331Z,42.90
2023-03-30T04:37:03.760Z,42.90
2023-03-30T04:39:57.808Z,42.90
2023-03-30T04:42:50.882Z,42.90
2023-03-30T04:45:50.537Z,42.90
2023-03-30T04:48:43.519Z,42.90
2023-03-30T04:51:37.314Z,42.90
2023-03-30T04:54:33.232Z,42.90
2023-03-30T04:57:26.422Z,42.90
2023-03-30T05:00:20.898Z,42.90
2023-03-30T05:03:14.945Z,42.90
2023-03-30T05:06:09.554Z,42.90
2023-03-30T05:09:02.297Z,42.90
2023-03-30T05:11:55.453Z,42.90
2023-03-30T05:14:48.681Z,42.90
2023-03-30T05:17:41.939Z,42.90
2023-03-30T05:20:36.288Z,42.90
2023-03-30T05:23:29.638Z,42.90
2023-03-30T05:26:23.824Z,42.90
2023-03-30T05:29:17.272Z,42.90
2023-03-30T05:32:10.399Z,42.90
2023-03-30T05:35:03.539Z,42.90
2023-03-30T05:37:58.387Z,42.90
2023-03-30T05:40:53.834Z,42.90
2023-03-30T05:43:47.538Z,42.90
2023-03-30T05:46:40.982Z,42.90
2023-03-30T05:49:33.789Z,42.90
2023-03-30T05:52:26.871Z,42.90
2023-03-30T05:55:21.177Z,42.90
2023-03-30T05:58:14.925Z,42.90
2023-03-30T06:01:09.451Z,42.90
2023-03-30T06:04:03.497Z,42.90
2023-03-30T06:06:56.942Z,42.90
2023-03-30T06:09:50.017Z,42.90
2023-03-30T06:12:44.264Z,42.90
2023-03-30T06:15:38.148Z,42.90
2023-03-30T06:18:31.631Z,42.90
2023-03-30T06:21:24.599Z,42.90
2023-03-30T06:24:18.669Z,42.90
2023-03-30T06:27:11.868Z,42.90
2023-03-30T06:30:09.439Z,42.90
2023-03-30T06:33:02.706Z,43.00
2023-03-30T06:35:55.886Z,42.90
2023-03-30T06:38:49.536Z,42.90
2023-03-30T06:41:42.524Z,43.00
2023-03-30T06:44:35.634Z,43.00
2023-03-30T06:47:30.001Z,43.00
2023-03-30T06:50:22.633Z,43.00
2023-03-30T06:53:16.144Z,42.90
2023-03-30T06:56:11.554Z,43.00
2023-03-30T06:59:05.349Z,43.00
2023-03-30T07:01:59.098Z,43.60
2023-03-30T07:04:53.497Z,43.60
2023-03-30T07:07:47.670Z,42.90
2023-03-30T07:10:40.602Z,43.00
2023-03-30T07:13:34.231Z,42.90
2023-03-30T07:16:28.217Z,43.00
2023-03-30T07:19:21.591Z,43.00
2023-03-30T07:22:16.194Z,42.90
2023-03-30T07:25:10.877Z,43.00
2023-03-30T07:28:06.145Z,43.00
2023-03-30T07:31:06.358Z,43.00
2023-03-30T07:33:59.532Z,42.90
2023-03-30T07:36:54.629Z,42.90
2023-03-30T07:39:49.041Z,43.00
2023-03-30T07:42:42.558Z,43.00
2023-03-30T07:45:35.959Z,42.90
2023-03-30T07:48:29.088Z,42.90
2023-03-30T07:51:22.149Z,42.90
2023-03-30T07:54:16.764Z,42.90
2023-03-30T07:57:11.444Z,42.90
2023-03-30T08:00:10.066Z,43.50
2023-03-30T08:03:03.025Z,43.00
2023-03-30T08:05:57.397Z,42.90
2023-03-30T08:08:50.864Z,42.90
2023-03-30T08:11:44.152Z,42.90
2023-03-30T08:14:39.285Z,42.90
2023-03-30T08:17:32.710Z,42.90
2023-03-30T08:20:26.294Z,42.90
2023-03-30T08:23:20.999Z,42.90
2023-03-30T08:26:13.775Z,42.90
2023-03-30T08:29:07.086Z,43.00
2023-03-30T08:32:01.472Z,42.90
2023-03-30T08:34:55.129Z,42.90
2023-03-30T08:37:48.683Z,42.90
2023-03-30T08:40:43.341Z,42.90
2023-03-30T08:43:46.405Z,43.00
2023-03-30T08:46:42.357Z,42.90
2023-03-30T08:49:42.400Z,43.00
2023-03-30T08:52:37.489Z,43.00
2023-03-30T08:55:35.879Z,43.00
2023-03-30T08:58:40.180Z,42.90
2023-03-30T09:01:45.093Z,43.00
2023-03-30T09:04:48.462Z,42.90
2023-03-30T09:07:47.652Z,43.00
2023-03-30T09:10:46.136Z,42.90
2023-03-30T09:13:40.670Z,43.00
2023-03-30T09:16:39.332Z,42.90
2023-03-30T09:19:37.016Z,42.90
2023-03-30T09:22:36.715Z,43.00
2023-03-30T09:25:34.628Z,43.00
2023-03-30T09:28:34.434Z,43.00
2023-03-30T09:31:34.003Z,43.00
2023-03-30T09:34:30.825Z,43.00
2023-03-30T09:37:23.992Z,43.00
2023-03-30T09:40:30.150Z,43.00
2023-03-30T09:43:33.945Z,43.00
2023-03-30T09:46:27.251Z,43.00
2023-03-30T09:49:20.881Z,42.90
2023-03-30T09:52:22.011Z,43.00
2023-03-30T09:55:28.994Z,43.00
2023-03-30T09:58:28.950Z,43.00
2023-03-30T10:01:24.229Z,43.00
2023-03-30T10:04:18.419Z,43.00
2023-03-30T10:07:22.816Z,43.00
2023-03-30T10:10:28.065Z,43.00
2023-03-30T10:13:28.694Z,42.90
2023-03-30T10:16:27.354Z,43.00
2023-03-30T10:19:22.619Z,43.00
2023-03-30T10:22:18.828Z,43.00
2023-03-30T10:25:21.198Z,43.00
2023-03-30T10:28:21.639Z,43.00
2023-03-30T10:31:17.660Z,42.90
2023-03-30T10:34:18.074Z,43.00
2023-03-30T10:37:13.907Z,43.00
2023-03-30T10:40:17.562Z,43.00
2023-03-30T10:43:15.782Z,43.00
2023-03-30T10:46:20.148Z,43.00
2023-03-30T10:49:22.684Z,43.00
2023-03-30T10:52:24.317Z,43.00
2023-03-30T10:55:24.127Z,43.00
2023-03-30T10:58:28.724Z,43.00
2023-03-30T11:01:29.422Z,42.90
2023-03-30T11:04:29.782Z,43.00
2023-03-30T11:07:29.007Z,43.00
2023-03-30T11:10:29.284Z,43.00
2023-03-30T11:13:25.436Z,43.00
2023-03-30T11:16:24.458Z,43.00
2023-03-30T11:19:23.000Z,43.00
2023-03-30T11:22:24.931Z,43.00
2023-03-30T11:25:21.893Z,43.00
2023-03-30T11:28:22.996Z,43.00
2023-03-30T11:31:25.179Z,43.00
2023-03-30T11:34:27.909Z,43.00
2023-03-30T11:37:29.732Z,43.00
2023-03-30T11:40:27.350Z,43.00
2023-03-30T11:43:23.426Z,43.00
2023-03-30T11:46:23.552Z,43.00
2023-03-30T11:49:41.213Z,43.00
2023-03-30T11:52:45.406Z,43.00
2023-03-30T11:56:10.810Z,43.00
2023-03-30T11:59:06.928Z,43.10
2023-03-30T12:02:13.513Z,43.10
2023-03-30T12:05:12.119Z,43.10
2023-03-30T12:08:20.738Z,43.10
2023-03-30T12:11:19.329Z,43.10
2023-03-30T12:14:31.757Z,43.10
2023-03-30T12:17:45.470Z,43.10
2023-03-30T12:20:45.113Z,43.10
2023-03-30T12:23:45.693Z,43.10
2023-03-30T12:26:39.535Z,43.10
2023-03-30T12:33:03.228Z,43.10
2023-03-30T12:35:59.670Z,43.10
2023-03-30T12:38:58.164Z,43.10
2023-03-30T12:41:58.085Z,43.10
2023-03-30T12:45:12.471Z,43.10
2023-03-30T12:48:18.958Z,43.10
2023-03-30T12:51:19.048Z,43.10
2023-03-30T12:54:45.411Z,43.20
2023-03-30T12:57:57.604Z,43.20
2023-03-30T13:01:24.272Z,43.20
2023-03-30T13:04:21.792Z,43.20
2023-03-30T13:07:22.269Z,43.20
2023-03-30T13:10:38.386Z,43.30
2023-03-30T13:13:48.327Z,43.20
2023-03-30T13:17:12.411Z,43.20
2023-03-30T13:20:28.922Z,43.20
2023-03-30T13:23:32.220Z,43.20
2023-03-30T13:26:34.899Z,43.20
2023-03-30T13:29:31.467Z,43.20
2023-03-30T13:32:53.201Z,43.20
2023-03-30T13:35:57.191Z,43.20
2023-03-30T13:39:05.015Z,43.20
2023-03-30T13:42:12.991Z,43.20
2023-03-30T13:45:17.018Z,43.30
2023-03-30T13:48:25.470Z,43.30
2023-03-30T13:51:24.468Z,43.30
2023-03-30T13:54:22.959Z,43.30
2023-03-30T13:57:22.250Z,43.30
2023-03-30T14:00:33.104Z,43.30
2023-03-30T14:03:36.085Z,43.30
2023-03-30T14:06:30.882Z,43.30
2023-03-30T14:09:25.586Z,43.30
2023-03-30T14:12:21.029Z,43.30
2023-03-30T14:15:20.992Z,43.30
2023-03-30T14:18:22.877Z,43.30
2023-03-30T14:21:19.154Z,43.40
2023-03-30T14:24:14.859Z,43.30
2023-03-30T14:27:13.305Z,43.30
2023-03-30T14:30:18.877Z,43.40
2023-03-30T14:33:13.963Z,43.40
2023-03-30T14:36:09.715Z,43.40
2023-03-30T14:39:04.242Z,43.40
2023-03-30T14:41:57.569Z,43.40
2023-03-30T14:44:54.593Z,43.40
2023-03-30T14:47:50.107Z,44.10
2023-03-30T14:50:44.369Z,43.40
2023-03-30T14:53:37.414Z,43.40
2023-03-30T14:56:31.133Z,43.40
2023-03-30T14:59:25.003Z,43.50
2023-03-30T15:02:21.111Z,43.50
2023-03-30T15:05:18.950Z,43.50
2023-03-30T15:08:21.836Z,43.40
2023-03-30T15:11:21.302Z,43.40
2023-03-30T15:14:18.808Z,43.40
2023-03-30T15:17:16.167Z,43.50
2023-03-30T15:20:13.198Z,43.40
2023-03-30T15:23:07.387Z,43.40
2023-03-30T15:26:03.127Z,43.40
2023-03-30T15:28:58.796Z,43.40
2023-03-30T15:32:01.473Z,43.40
2023-03-30T15:35:06.957Z,43.40
2023-03-30T15:38:02.410Z,43.50
2023-03-30T15:40:56.667Z,43.40
2023-03-30T15:43:56.132Z,43.40
2023-03-30T15:46:50.353Z,43.40
2023-03-30T15:49:48.682Z,43.40
2023-03-30T15:52:44.708Z,43.40
2023-03-30T15:55:40.575Z,43.40
2023-03-30T15:58:35.931Z,43.40
2023-03-30T16:01:41.208Z,43.40
2023-03-30T16:04:34.563Z,43.40
2023-03-30T16:07:29.256Z,43.40
2023-03-30T16:10:24.632Z,43.40
2023-03-30T16:13:18.457Z,43.40
2023-03-30T16:16:13.796Z,44.00
2023-03-30T16:19:11.771Z,43.40
2023-03-30T16:22:04.953Z,43.40
2023-03-30T16:24:58.171Z,43.40
2023-03-30T16:27:51.328Z,43.40
2023-03-30T16:30:47.079Z,43.40
2023-03-30T16:33:41.301Z,43.40
2023-03-30T16:36:34.868Z,43.40
2023-03-30T16:39:30.461Z,43.50
2023-03-30T16:42:23.383Z,43.50
2023-03-30T16:45:16.552Z,43.50
2023-03-30T16:48:11.083Z,44.10
2023-03-30T16:51:06.602Z,43.50
2023-03-30T16:54:00.500Z,43.50
2023-03-30T16:56:53.252Z,43.40
2023-03-30T16:59:46.483Z,43.50
2023-03-30T17:02:39.139Z,43.40
2023-03-30T17:05:32.578Z,43.40
2023-03-30T17:08:29.472Z,43.40
2023-03-30T17:11:22.394Z,43.50
2023-03-30T17:14:16.237Z,43.40
2023-03-30T17:17:09.163Z,43.50
2023-03-30T17:20:17.899Z,43.50
2023-03-30T17:23:11.638Z,43.40
2023-03-30T17:26:07.681Z,43.40
2023-03-30T17:29:01.419Z,43.40
2023-03-30T17:31:54.308Z,43.50
2023-03-30T17:34:47.640Z,43.50
2023-03-30T17:37:41.870Z,43.40
2023-03-30T17:40:38.911Z,43.50
2023-03-30T17:43:33.739Z,43.50
2023-03-30T17:46:27.370Z,43.50
2023-03-30T17:49:20.375Z,43.50
2023-03-30T17:52:13.416Z,43.50
2023-03-30T17:55:07.331Z,43.50
2023-03-30T17:58:01.294Z,43.50
2023-03-30T18:00:55.606Z,43.50
2023-03-30T18:03:48.863Z,43.50
2023-03-30T18:06:42.905Z,43.50
2023-03-30T18:09:36.691Z,43.50
2023-03-30T18:12:30.643Z,43.50
2023-03-30T18:15:27.766Z,43.50
2023-03-30T18:18:24.870Z,43.50
2023-03-30T18:21:18.642Z,43.50
2023-03-30T18:24:12.522Z,43.50
2023-03-30T18:27:05.399Z,43.50
2023-03-30T18:29:58.101Z,43.50
2023-03-30T18:32:52.090Z,43.50
2023-03-30T18:35:48.953Z,43.50
2023-03-30T18:38:42.647Z,43.50
2023-03-30T18:41:35.620Z,43.50
2023-03-30T18:44:28.570Z,43.50
2023-03-30T18:47:21.780Z,43.50
2023-03-30T18:50:21.489Z,43.50
2023-03-30T18:53:17.917Z,43.50
2023-03-30T18:56:13.647Z,43.50
2023-03-30T18:59:07.510Z,43.50
2023-03-30T19:02:00.596Z,43.50
2023-03-30T19:04:55.542Z,43.50
2023-03-30T19:07:49.445Z,43.50
2023-03-30T19:10:45.466Z,43.50
2023-03-30T19:13:38.433Z,43.50
2023-03-30T19:16:31.350Z,43.50
2023-03-30T19:19:24.557Z,43.50
2023-03-30T19:22:17.589Z,43.50
2023-03-30T19:25:12.136Z,43.50
2023-03-30T19:28:08.341Z,43.50
2023-03-30T19:31:06.092Z,43.50
2023-03-30T19:33:59.408Z,43.60
2023-03-30T19:36:52.764Z,43.50
2023-03-30T19:39:46.650Z,43.50
2023-03-30T19:42:39.767Z,43.50
2023-03-30T19:45:34.787Z,43.50
2023-03-30T19:48:28.628Z,43.50
2023-03-30T19:51:21.515Z,43.50
2023-03-30T19:54:14.688Z,43.50
2023-03-30T19:57:08.765Z,43.60
2023-03-30T20:00:03.004Z,43.50
2023-03-30T20:02:57.954Z,43.50
2023-03-30T20:05:51.921Z,43.50
2023-03-30T20:08:45.256Z,43.50
2023-03-30T20:11:38.660Z,43.50
2023-03-30T20:14:32.145Z,43.60
2023-03-30T20:17:25.636Z,43.50
2023-03-30T20:20:25.078Z,43.50
2023-03-30T20:23:18.410Z,43.50
2023-03-30T20:26:11.395Z,43.50
2023-03-30T20:29:04.778Z,43.50
2023-03-30T20:31:58.306Z,43.50
2023-03-30T20:34:51.540Z,43.50
2023-03-30T20:37:45.841Z,43.60
2023-03-30T20:40:39.803Z,43.50
2023-03-30T20:46:39.731Z,43.60
2023-03-30T20:49:33.482Z,43.50
2023-03-30T20:52:27.005Z,43.50
2023-03-30T20:55:21.874Z,43.60
2023-03-30T20:58:15.572Z,44.10
2023-03-30T21:01:14.736Z,43.50
2023-03-30T21:04:08.888Z,43.60
2023-03-30T21:07:02.443Z,43.60
2023-03-30T21:09:55.464Z,43.60
2023-03-30T21:12:49.848Z,43.60
2023-03-30T21:15:43.804Z,43.60
2023-03-30T21:18:37.321Z,43.60
2023-03-30T21:21:31.243Z,43.60
2023-03-30T21:24:24.419Z,43.60
2023-03-30T21:27:17.431Z,43.60
2023-03-30T21:30:14.290Z,43.60
2023-03-30T21:33:07.561Z,43.60
2023-03-30T21:36:00.566Z,43.60
2023-03-30T21:38:53.276Z,43.60
2023-03-30T21:41:46.573Z,43.60
2023-03-30T21:44:39.318Z,43.60
2023-03-30T21:47:33.794Z,43.60
2023-03-30T21:50:26.448Z,43.60
2023-03-30T21:53:19.505Z,43.70
2023-03-30T21:56:13.433Z,43.60
2023-03-30T21:59:06.227Z,43.60
2023-03-30T22:02:00.423Z,43.60
2023-03-30T22:04:54.872Z,43.60
2023-03-30T22:07:48.804Z,43.60
2023-03-30T22:10:42.197Z,43.70
2023-03-30T22:13:35.629Z,43.60
2023-03-30T22:16:31.384Z,43.60
2023-03-30T22:19:25.501Z,43.70
2023-03-30T22:22:19.589Z,43.60
2023-03-30T22:25:12.513Z,43.60
2023-03-30T22:28:05.579Z,43.70
2023-03-30T22:30:58.374Z,43.70
2023-03-30T22:33:53.465Z,43.60
2023-03-30T22:36:46.533Z,43.60
2023-03-30T22:39:40.991Z,43.60
2023-03-30T22:42:35.910Z,43.60
2023-03-30T22:45:29.630Z,43.70
2023-03-30T22:48:22.462Z,43.70
2023-03-30T22:51:25.992Z,43.60
2023-03-30T22:54:20.279Z,43.60
2023-03-30T22:57:14.909Z,43.60
2023-03-30T23:00:10.741Z,43.70
2023-03-30T23:03:03.814Z,43.70
2023-03-30T23:06:01.021Z,43.70
2023-03-30T23:08:54.524Z,43.70
2023-03-30T23:11:47.736Z,43.70
2023-03-30T23:14:44.480Z,43.60
2023-03-30T23:17:38.904Z,43.70
2023-03-30T23:20:32.526Z,43.60
2023-03-30T23:23:25.745Z,43.70
2023-03-30T23:26:19.433Z,43.60
2023-03-30T23:29:12.385Z,43.70
2023-03-30T23:32:07.313Z,43.60
2023-03-30T23:35:00.557Z,43.70
2023-03-30T23:37:53.890Z,43.70
2023-03-30T23:40:46.860Z,43.70
2023-03-30T23:43:39.654Z,43.70
2023-03-30T23:46:32.685Z,43.60
2023-03-30T23:49:27.230Z,43.70
2023-03-30T23:52:20.664Z,43.70
2023-03-30T23:55:15.462Z,43.60
2023-03-30T23:58:08.450Z,43.70
